CheckWX is a tool to help pilots better visualize weather data.  It is not intended as a substitute for an official pre-flight weather briefing.

03:58:35 UTC

CYLT TAF
Alert Airport
Alert, Canada
TAF CYLT 221730Z 2218/2306 30010KT P6SM BKN050 OVC120 TEMPO 2218/2306 5SM -SN IC OVC050 RMK NXT FCST BY 230000Z

Feb-22@
18:00 UTC

Feb-22 @ 18:00 UTC

Feb-23@
06:00 UTC

Feb-23 @ 06:00 UTC

TAF CYLT 221730Z 2218/2306 30010KT P6SM BKN050 OVC120
Wind
  • 300° at 10 KTS
Cloud Levels
  • Broken at 5,000' AGL
  • Overcast at 12,000' AGL

Feb-22@
18:00 UTC

Feb-22 @ 18:00 UTC

Feb-23@
06:00 UTC

Feb-23 @ 06:00 UTC

TEMPO 2218/2306 5SM -SN IC OVC050 RMK NXT FCST BY 230000Z

Temporary

Temporary Changes expected for less than half the time period

Conditions
Light Snow, Ice crystals
Cloud Levels
  • Overcast at 5,000' AGL